Forside
METAR-TAF:

METAR-TAF

Lufthavne :

Waseca Municipal Airport

Waseca, Minnesota, USA

Breddekreds: 44-04-24N, længdekreds: 093-33-11W, højde: 343 m

Aktuelle vejr

Denne rapport blev lavet for 36 minutter siden, kl. 03:19 UTC
Vind 19 kt fra sydøst med vindstød på up til 23 kt
Temperatur -4°C
Fugtighed 86%
Tryk 1014 hPa
Sigt: 4.0 km
Overskyet i en højde af 1200 ft
let sne

METAR: KACQ 180319Z AUTO 13019G23KT 2 1/2SM -SN OVC012 M04/M06 A2994 RMK AO2

Tid: 21:55 (03:55 UTC)


TAF: fraværende

Vejrobservationer og prognoser fra mere end 4000 lufthavne (METAR og TAF).

De gule og røde prikker repræsenterer de meteorologiske stationer.

Flyt musen over at se navnet på stationen.

Så klik over at se vejr observationer og prognoser.

At skifte det kort: Klik på de grønne knapper med et sort kors for at zoome ind; på den grønne knap med en bindestreg for at zoome ud; eller på de grønne pile for tilstødende kort.


METAR-TAF: